Time;durP1;ratioP1;P1;durP2;ratioP2;P2;SDS_P1;SDS_P2;PMS_P1;PMS_P2;Temp;Humidity;BMP_temperature;BMP_pressure;BME280_temperature;BME280_humidity;BME280_pressure;Samples;Min_cycle;Max_cycle;Signal;HPM_P1;HPM_P2
2024/03/12 00:01:26;;;;;;;;;;;23.00;43.70;;;;;;5053315;28;19925;-63
2024/03/12 00:03:54;;;;;;;;;;;23.00;43.60;;;;;;5053159;28;19986;-62
2024/03/12 00:06:22;;;;;;;;;;;23.00;43.60;;;;;;5053276;28;19932;-62
2024/03/12 00:08:49;;;;;;;;;;;23.00;43.60;;;;;;5053076;28;19933;-62
2024/03/12 00:11:16;;;;;;;;;;;23.00;43.60;;;;;;5052981;28;20421;-62
2024/03/12 00:13:43;;;;;;;;;;;23.00;43.60;;;;;;5052962;28;19979;-62
2024/03/12 00:16:10;;;;;;;;;;;23.00;43.60;;;;;;5052935;28;19924;-62
2024/03/12 00:18:40;;;;;;;;;;;23.00;43.60;;;;;;5053284;28;19925;-62
2024/03/12 00:21:07;;;;;;;;;;;23.00;43.60;;;;;;5053114;28;19931;-62
2024/03/12 00:23:34;;;;;;;;;;;22.90;43.60;;;;;;5053079;28;19925;-62
2024/03/12 00:26:03;;;;;;;;;;;22.90;43.60;;;;;;5056737;28;19929;-62
2024/03/12 00:28:33;;;;;;;;;;;22.90;43.60;;;;;;5055621;28;19925;-62
2024/03/12 00:31:00;;;;;;;;;;;22.90;43.60;;;;;;5057135;28;19924;-62
2024/03/12 00:33:27;;;;;;;;;;;22.90;43.70;;;;;;5056820;28;20374;-62
2024/03/12 00:35:55;;;;;;;;;;;22.90;43.70;;;;;;5056744;28;19939;-62
2024/03/12 00:38:22;;;;;;;;;;;22.90;43.70;;;;;;5056726;28;19979;-62
2024/03/12 00:40:50;;;;;;;;;;;22.90;43.70;;;;;;5056961;28;19929;-62
2024/03/12 00:43:17;;;;;;;;;;;22.90;43.70;;;;;;5057017;28;19929;-62
2024/03/12 00:45:44;;;;;;;;;;;22.90;43.70;;;;;;5056686;28;19931;-62
2024/03/12 00:48:17;;;;;;;;;;;22.90;43.60;;;;;;5057161;28;19979;-62
2024/03/12 00:50:46;;;;;;;;;;;22.90;43.70;;;;;;5055694;28;20267;-62
2024/03/12 00:53:13;;;;;;;;;;;22.90;43.60;;;;;;5056782;28;20294;-62
2024/03/12 00:55:41;;;;;;;;;;;22.90;43.60;;;;;;5056721;28;19947;-62
2024/03/12 00:58:12;;;;;;;;;;;22.90;43.60;;;;;;5056728;28;19932;-62
2024/03/12 01:00:39;;;;;;;;;;;22.90;43.50;;;;;;5056168;28;19924;-62
2024/03/12 01:03:11;;;;;;;;;;;22.90;43.50;;;;;;5056408;28;19928;-62
2024/03/12 01:05:39;;;;;;;;;;;22.90;43.50;;;;;;5056600;28;19925;-62
2024/03/12 01:08:07;;;;;;;;;;;22.90;43.50;;;;;;5056489;28;19932;-62
2024/03/12 01:10:35;;;;;;;;;;;22.90;43.50;;;;;;5056143;28;19929;-62
2024/03/12 01:13:05;;;;;;;;;;;22.90;43.50;;;;;;5055159;28;19924;-62
2024/03/12 01:15:32;;;;;;;;;;;22.90;43.50;;;;;;5056344;28;20337;-62
2024/03/12 01:17:59;;;;;;;;;;;22.90;43.50;;;;;;5056497;28;19968;-62
2024/03/12 01:20:27;;;;;;;;;;;22.90;43.50;;;;;;5055845;28;19936;-62
2024/03/12 01:22:54;;;;;;;;;;;22.90;43.40;;;;;;5056303;28;19924;-62
2024/03/12 01:25:21;;;;;;;;;;;22.90;43.50;;;;;;5056219;28;20259;-62
2024/03/12 01:27:50;;;;;;;;;;;22.90;43.40;;;;;;5056160;28;19932;-62
2024/03/12 01:30:20;;;;;;;;;;;22.90;43.50;;;;;;5054662;28;19929;-62
2024/03/12 01:32:48;;;;;;;;;;;22.80;43.40;;;;;;5055556;28;19932;-62
2024/03/12 01:35:15;;;;;;;;;;;22.80;43.40;;;;;;5055611;28;19978;-62
2024/03/12 01:37:45;;;;;;;;;;;22.80;43.50;;;;;;5055893;28;19924;-62
2024/03/12 01:40:19;;;;;;;;;;;22.90;43.50;;;;;;5055501;28;20289;-62
2024/03/12 01:42:49;;;;;;;;;;;22.80;43.50;;;;;;5056045;28;19929;-62
2024/03/12 01:45:17;;;;;;;;;;;22.80;43.50;;;;;;5055803;28;19932;-62
2024/03/12 01:47:45;;;;;;;;;;;22.80;43.50;;;;;;5055595;28;20461;-62
2024/03/12 01:50:12;;;;;;;;;;;22.80;43.50;;;;;;5037909;28;19924;-62
2024/03/12 01:52:39;;;;;;;;;;;22.80;43.50;;;;;;5055985;28;19925;-62
2024/03/12 01:55:07;;;;;;;;;;;22.80;43.50;;;;;;5055115;28;19931;-63
2024/03/12 01:57:35;;;;;;;;;;;22.80;43.50;;;;;;5054280;28;20448;-63
2024/03/12 02:00:05;;;;;;;;;;;22.80;43.50;;;;;;5055427;28;19931;-63
2024/03/12 02:02:32;;;;;;;;;;;22.80;43.50;;;;;;5055637;28;19935;-65
2024/03/12 02:04:59;;;;;;;;;;;22.80;43.50;;;;;;5055213;28;19929;-65
2024/03/12 02:07:26;;;;;;;;;;;22.80;43.40;;;;;;5055192;28;20400;-65
2024/03/12 02:09:53;;;;;;;;;;;22.80;43.40;;;;;;5055119;28;20394;-64
2024/03/12 02:12:20;;;;;;;;;;;22.80;43.40;;;;;;5055164;28;19931;-66
2024/03/12 02:14:46;;;;;;;;;;;22.80;43.40;;;;;;5054816;28;19935;-70
2024/03/12 02:17:13;;;;;;;;;;;22.80;43.30;;;;;;5055009;28;19968;-64
2024/03/12 02:19:40;;;;;;;;;;;22.90;43.40;;;;;;5054848;28;20372;-62
2024/03/12 02:22:07;;;;;;;;;;;22.80;43.30;;;;;;5054971;28;20162;-62
2024/03/12 02:24:34;;;;;;;;;;;22.80;43.30;;;;;;5055002;28;19929;-62
2024/03/12 02:27:01;;;;;;;;;;;22.80;43.30;;;;;;5054974;28;19925;-62
2024/03/12 02:29:28;;;;;;;;;;;22.80;43.30;;;;;;5054648;28;19935;-62
2024/03/12 02:31:56;;;;;;;;;;;22.80;43.30;;;;;;5054616;28;19931;-62
2024/03/12 02:34:23;;;;;;;;;;;22.80;43.30;;;;;;5054450;28;19980;-62
2024/03/12 02:36:50;;;;;;;;;;;22.80;43.30;;;;;;5054695;28;19932;-63
2024/03/12 02:39:18;;;;;;;;;;;22.80;43.30;;;;;;5054684;28;19925;-62
2024/03/12 02:41:45;;;;;;;;;;;22.80;43.30;;;;;;5054711;28;19964;-62
2024/03/12 02:44:12;;;;;;;;;;;22.80;43.30;;;;;;5054677;28;19925;-62
2024/03/12 02:46:40;;;;;;;;;;;22.80;43.30;;;;;;5054322;28;19968;-62
2024/03/12 02:49:07;;;;;;;;;;;22.70;43.30;;;;;;5054031;28;20505;-62
2024/03/12 02:51:34;;;;;;;;;;;22.70;43.30;;;;;;5054544;28;19925;-62
2024/03/12 02:54:04;;;;;;;;;;;22.70;43.40;;;;;;5054109;28;20019;-62
2024/03/12 02:56:33;;;;;;;;;;;22.70;43.30;;;;;;5054324;28;20416;-62
2024/03/12 02:59:00;;;;;;;;;;;22.70;43.40;;;;;;5054147;28;19924;-62
2024/03/12 03:01:27;;;;;;;;;;;22.70;43.40;;;;;;5053959;28;19932;-62
2024/03/12 03:03:54;;;;;;;;;;;22.70;43.40;;;;;;5054458;28;19964;-63
2024/03/12 03:06:24;;;;;;;;;;;22.70;43.40;;;;;;5054133;28;19975;-62
2024/03/12 03:08:51;;;;;;;;;;;22.70;43.40;;;;;;5053925;28;19932;-62
2024/03/12 03:11:18;;;;;;;;;;;22.70;43.30;;;;;;5054161;28;20336;-62
2024/03/12 03:13:45;;;;;;;;;;;22.70;43.30;;;;;;5053822;28;20027;-62
2024/03/12 03:16:11;;;;;;;;;;;22.70;43.30;;;;;;5053882;28;19925;-62
2024/03/12 03:18:38;;;;;;;;;;;22.70;43.30;;;;;;5053746;28;19924;-62
2024/03/12 03:21:08;;;;;;;;;;;22.80;43.30;;;;;;5053520;28;20455;-62
2024/03/12 03:23:40;;;;;;;;;;;22.70;43.20;;;;;;5054159;28;19994;-62
2024/03/12 03:26:10;;;;;;;;;;;22.70;43.20;;;;;;5044553;28;19925;-62
2024/03/12 03:28:37;;;;;;;;;;;22.70;43.20;;;;;;5053324;28;19925;-62
2024/03/12 03:31:04;;;;;;;;;;;22.70;43.20;;;;;;5051992;28;19925;-63
2024/03/12 03:33:31;;;;;;;;;;;22.80;43.20;;;;;;5053819;28;19924;-62
2024/03/12 03:35:58;;;;;;;;;;;22.80;43.20;;;;;;5053691;28;19929;-62
2024/03/12 03:38:27;;;;;;;;;;;22.70;43.20;;;;;;5053590;28;20288;-62
2024/03/12 03:40:54;;;;;;;;;;;22.70;43.10;;;;;;5035964;28;20011;-62
2024/03/12 03:43:21;;;;;;;;;;;22.80;43.20;;;;;;5053825;28;19925;-62
2024/03/12 03:45:48;;;;;;;;;;;22.80;43.10;;;;;;5053701;28;19929;-62
2024/03/12 03:48:15;;;;;;;;;;;22.70;43.10;;;;;;5035928;28;20425;-62
2024/03/12 03:50:42;;;;;;;;;;;22.70;43.10;;;;;;5053648;28;19925;-62
2024/03/12 03:53:08;;;;;;;;;;;22.70;43.10;;;;;;5053051;28;19925;-62
2024/03/12 03:55:36;;;;;;;;;;;22.70;43.10;;;;;;5053151;28;19925;-62
2024/03/12 03:58:03;;;;;;;;;;;22.70;43.10;;;;;;5053315;28;19967;-62
2024/03/12 04:00:31;;;;;;;;;;;22.70;43.10;;;;;;5053217;28;20372;-62
2024/03/12 04:02:58;;;;;;;;;;;22.70;43.10;;;;;;5053078;28;19971;-62
2024/03/12 04:05:25;;;;;;;;;;;22.70;43.10;;;;;;5053168;28;20314;-62
2024/03/12 04:07:53;;;;;;;;;;;22.70;43.20;;;;;;5053073;28;19979;-62
2024/03/12 04:10:22;;;;;;;;;;;22.70;43.20;;;;;;5053199;28;19925;-62
2024/03/12 04:12:49;;;;;;;;;;;22.70;43.20;;;;;;5053292;28;19925;-62
2024/03/12 04:15:18;;;;;;;;;;;22.70;43.30;;;;;;5052740;28;20384;-62
2024/03/12 04:17:45;;;;;;;;;;;22.70;43.20;;;;;;5053379;28;19925;-62
2024/03/12 04:20:12;;;;;;;;;;;22.70;43.30;;;;;;5052920;28;19952;-62
2024/03/12 04:22:39;;;;;;;;;;;22.70;43.20;;;;;;5052959;28;19931;-62
2024/03/12 04:25:07;;;;;;;;;;;22.70;43.20;;;;;;5052856;28;19931;-63
2024/03/12 04:27:38;;;;;;;;;;;22.70;43.20;;;;;;5053395;28;19925;-62
2024/03/12 04:30:09;;;;;;;;;;;22.70;43.20;;;;;;5053159;28;19924;-62
2024/03/12 04:32:36;;;;;;;;;;;22.70;43.20;;;;;;5052634;28;19975;-62
2024/03/12 04:35:08;;;;;;;;;;;22.70;43.10;;;;;;5052937;28;19979;-62
2024/03/12 04:37:35;;;;;;;;;;;22.70;43.10;;;;;;5052769;28;19925;-62
2024/03/12 04:40:08;;;;;;;;;;;22.70;42.90;;;;;;5051002;28;19947;-62
2024/03/12 04:42:36;;;;;;;;;;;22.70;42.80;;;;;;5041534;28;19976;-62
2024/03/12 04:45:04;;;;;;;;;;;22.70;42.60;;;;;;5052412;28;19924;-62
2024/03/12 04:47:32;;;;;;;;;;;22.70;42.50;;;;;;5052715;28;20378;-62
2024/03/12 04:50:00;;;;;;;;;;;22.80;42.50;;;;;;5052789;28;20302;-62
2024/03/12 04:52:26;;;;;;;;;;;22.80;42.40;;;;;;5052758;28;19932;-62
2024/03/12 04:54:53;;;;;;;;;;;22.80;42.30;;;;;;5034411;28;19928;-62
2024/03/12 04:57:20;;;;;;;;;;;22.80;42.30;;;;;;5052103;28;19932;-62
2024/03/12 04:59:48;;;;;;;;;;;22.80;42.30;;;;;;5052562;28;19982;-62
2024/03/12 05:02:15;;;;;;;;;;;22.70;42.20;;;;;;5052498;28;19925;-62
2024/03/12 05:04:42;;;;;;;;;;;22.70;42.20;;;;;;5052463;28;20031;-62
2024/03/12 05:07:09;;;;;;;;;;;22.80;42.10;;;;;;5052737;28;19983;-62
2024/03/12 05:09:36;;;;;;;;;;;22.80;42.10;;;;;;5052456;28;19931;-62
2024/03/12 05:12:03;;;;;;;;;;;22.70;42.00;;;;;;5055677;28;20011;-62
2024/03/12 05:14:29;;;;;;;;;;;22.70;42.00;;;;;;5055762;28;19931;-62
2024/03/12 05:16:58;;;;;;;;;;;22.70;41.90;;;;;;5056339;28;20259;-62
2024/03/12 05:19:26;;;;;;;;;;;22.70;41.90;;;;;;5056242;28;19925;-62
2024/03/12 05:21:53;;;;;;;;;;;22.70;41.90;;;;;;5055862;28;19924;-62
2024/03/12 05:24:19;;;;;;;;;;;22.70;41.90;;;;;;5055625;28;19925;-62
2024/03/12 05:26:49;;;;;;;;;;;22.70;41.90;;;;;;5056137;28;20336;-62
2024/03/12 05:29:17;;;;;;;;;;;22.70;41.90;;;;;;5055612;28;19931;-62
2024/03/12 05:31:44;;;;;;;;;;;22.70;41.90;;;;;;5055248;28;19932;-62
2024/03/12 05:34:27;;;;;;;;;;;22.70;41.80;;;;;;5055482;28;19924;-62
2024/03/12 05:37:03;;;;;;;;;;;22.70;41.70;;;;;;5054845;28;19972;-62
2024/03/12 05:40:10;;;;;;;;;;;22.70;41.70;;;;;;5055106;28;19978;-62
2024/03/12 05:48:07;;;;;;;;;;;22.80;41.70;;;;;;5054898;28;19932;-62
2024/03/12 05:50:35;;;;;;;;;;;22.80;41.70;;;;;;5055518;28;20015;-62
2024/03/12 05:53:02;;;;;;;;;;;22.80;41.70;;;;;;5054509;28;20019;-62
2024/03/12 05:55:29;;;;;;;;;;;22.80;41.60;;;;;;5055415;28;20275;-62
2024/03/12 05:57:56;;;;;;;;;;;22.80;41.60;;;;;;5055470;28;19925;-62
2024/03/12 06:00:23;;;;;;;;;;;22.80;41.60;;;;;;5055196;28;19925;-62
2024/03/12 06:02:50;;;;;;;;;;;22.80;41.50;;;;;;5054296;28;20382;-62
2024/03/12 06:05:17;;;;;;;;;;;22.80;41.50;;;;;;5053858;28;19940;-62
2024/03/12 06:07:44;;;;;;;;;;;22.80;41.50;;;;;;5054557;28;19951;-62
2024/03/12 06:10:11;;;;;;;;;;;22.80;41.50;;;;;;5054541;28;19975;-62
2024/03/12 06:12:38;;;;;;;;;;;22.80;41.50;;;;;;5053014;28;19925;-60
2024/03/12 06:15:06;;;;;;;;;;;22.80;41.50;;;;;;5054001;28;20380;-62
2024/03/12 06:17:32;;;;;;;;;;;22.80;41.50;;;;;;5054663;28;20011;-62
2024/03/12 06:19:59;;;;;;;;;;;22.80;41.50;;;;;;5054200;28;20298;-62
2024/03/12 06:22:26;;;;;;;;;;;22.80;41.50;;;;;;5052164;28;20012;-62
2024/03/12 06:24:53;;;;;;;;;;;22.80;41.50;;;;;;5051259;28;19932;-62
2024/03/12 06:27:22;;;;;;;;;;;22.80;41.50;;;;;;5052188;28;19933;-64
2024/03/12 06:29:51;;;;;;;;;;;22.80;41.70;;;;;;5054147;28;19935;-63
2024/03/12 06:32:21;;;;;;;;;;;22.80;42.00;;;;;;5048022;28;19925;-64
2024/03/12 06:34:48;;;;;;;;;;;22.90;42.10;;;;;;5043256;28;19943;-61
2024/03/12 06:37:15;;;;;;;;;;;22.90;42.20;;;;;;5047468;28;19925;-64
2024/03/12 06:39:44;;;;;;;;;;;22.90;42.20;;;;;;5047562;28;19952;-62
2024/03/12 06:42:12;;;;;;;;;;;23.00;42.20;;;;;;5047350;28;19940;-61
2024/03/12 06:44:42;;;;;;;;;;;23.00;42.30;;;;;;5045815;28;19960;-62
2024/03/12 06:47:09;;;;;;;;;;;23.00;42.30;;;;;;5044171;28;19960;-63
2024/03/12 06:49:37;;;;;;;;;;;23.00;42.30;;;;;;5045835;28;19925;-64
2024/03/12 06:52:06;;;;;;;;;;;23.10;42.30;;;;;;5045516;28;19967;-64
2024/03/12 06:54:34;;;;;;;;;;;23.10;42.10;;;;;;5042477;28;19929;-64
2024/03/12 06:57:04;;;;;;;;;;;23.10;41.90;;;;;;5042883;28;19940;-64
2024/03/12 06:59:32;;;;;;;;;;;23.10;41.90;;;;;;5043959;28;20367;-64
2024/03/12 07:02:03;;;;;;;;;;;23.10;41.80;;;;;;5039692;28;19933;-64
2024/03/12 07:04:43;;;;;;;;;;;23.10;41.80;;;;;;5043546;28;19937;-64
2024/03/12 07:07:18;;;;;;;;;;;23.10;41.80;;;;;;5044618;28;19932;-62
2024/03/12 07:09:45;;;;;;;;;;;23.10;41.90;;;;;;5045407;28;20091;-63
2024/03/12 07:12:17;;;;;;;;;;;23.10;41.90;;;;;;5040551;28;20325;-62
2024/03/12 07:14:54;;;;;;;;;;;23.10;42.10;;;;;;5045592;28;20394;-63
2024/03/12 07:17:22;;;;;;;;;;;23.20;42.10;;;;;;5043326;28;19929;-63
2024/03/12 07:19:49;;;;;;;;;;;23.30;42.10;;;;;;5044030;28;19934;-60
2024/03/12 07:22:18;;;;;;;;;;;23.30;42.00;;;;;;5045425;28;20393;-61
2024/03/12 07:24:45;;;;;;;;;;;23.30;42.00;;;;;;5045465;28;20444;-63
2024/03/12 07:27:13;;;;;;;;;;;23.40;42.00;;;;;;5045084;28;19933;-64
2024/03/12 07:29:43;;;;;;;;;;;23.40;42.00;;;;;;5043894;28;19925;-68
2024/03/12 07:32:10;;;;;;;;;;;23.40;42.00;;;;;;5042569;28;19987;-64
2024/03/12 07:34:39;;;;;;;;;;;23.40;42.00;;;;;;5039896;28;19972;-64
2024/03/12 07:37:06;;;;;;;;;;;23.40;42.10;;;;;;5041533;28;19939;-65
2024/03/12 07:39:36;;;;;;;;;;;23.40;42.00;;;;;;5045464;28;19933;-64
2024/03/12 07:42:09;;;;;;;;;;;23.40;41.90;;;;;;5041746;28;20355;-65
2024/03/12 07:44:41;;;;;;;;;;;23.50;41.90;;;;;;5042774;28;20369;-64
2024/03/12 07:47:09;;;;;;;;;;;23.60;41.70;;;;;;5043147;28;19932;-63
2024/03/12 07:49:37;;;;;;;;;;;23.60;41.50;;;;;;5042854;28;19924;-62
2024/03/12 07:52:05;;;;;;;;;;;23.60;41.30;;;;;;5043160;28;20000;-63
2024/03/12 07:54:33;;;;;;;;;;;23.60;41.20;;;;;;5044494;28;19932;-61
2024/03/12 07:57:00;;;;;;;;;;;23.60;41.20;;;;;;5042408;28;19947;-64
2024/03/12 07:59:31;;;;;;;;;;;23.60;41.10;;;;;;5041567;28;19929;-62
2024/03/12 08:01:58;;;;;;;;;;;23.70;41.30;;;;;;5044503;28;19932;-61
2024/03/12 08:04:25;;;;;;;;;;;23.70;41.20;;;;;;5043145;28;19925;-62
2024/03/12 08:06:52;;;;;;;;;;;23.70;41.30;;;;;;5043383;28;19928;-60
2024/03/12 08:09:20;;;;;;;;;;;23.80;41.30;;;;;;5044480;28;19932;-61
2024/03/12 08:11:47;;;;;;;;;;;23.80;41.30;;;;;;5044446;28;19933;-61
2024/03/12 08:14:14;;;;;;;;;;;23.90;41.20;;;;;;5039040;28;20575;-63
2024/03/12 08:16:41;;;;;;;;;;;23.90;41.10;;;;;;5044348;28;19956;-64
2024/03/12 08:19:11;;;;;;;;;;;24.00;41.20;;;;;;5039758;28;19929;-64
2024/03/12 08:21:38;;;;;;;;;;;24.00;41.10;;;;;;5045535;28;20306;-66
2024/03/12 08:24:06;;;;;;;;;;;24.10;41.10;;;;;;5022928;28;19933;-64
2024/03/12 08:26:33;;;;;;;;;;;24.10;41.10;;;;;;5043346;28;21364;-62
2024/03/12 08:29:01;;;;;;;;;;;24.20;41.00;;;;;;5043743;28;20455;-63
2024/03/12 08:31:29;;;;;;;;;;;24.30;40.80;;;;;;5043821;28;20027;-62
2024/03/12 08:34:04;;;;;;;;;;;24.30;40.60;;;;;;5043189;28;20356;-63
2024/03/12 08:36:33;;;;;;;;;;;24.30;40.50;;;;;;5046447;28;19932;-61
2024/03/12 08:39:01;;;;;;;;;;;24.30;40.50;;;;;;5042504;28;19932;-63
2024/03/12 08:41:27;;;;;;;;;;;24.30;40.50;;;;;;5044077;28;19932;-62
2024/03/12 08:43:54;;;;;;;;;;;24.40;40.50;;;;;;5042510;28;20026;-64
2024/03/12 08:46:21;;;;;;;;;;;24.50;40.40;;;;;;5047804;28;20525;-62
2024/03/12 08:48:48;;;;;;;;;;;24.50;40.30;;;;;;5048816;28;20340;-62
2024/03/12 08:51:15;;;;;;;;;;;24.60;40.30;;;;;;5049019;28;19924;-61
2024/03/12 08:53:42;;;;;;;;;;;24.60;40.30;;;;;;5048971;28;20301;-60
2024/03/12 08:56:09;;;;;;;;;;;24.60;40.20;;;;;;5047100;28;20525;-62
2024/03/12 08:58:36;;;;;;;;;;;24.70;40.20;;;;;;5046565;28;19940;-62
2024/03/12 09:01:04;;;;;;;;;;;24.70;40.20;;;;;;5046087;28;19933;-61
2024/03/12 09:03:32;;;;;;;;;;;24.70;40.10;;;;;;5027570;28;19935;-63
2024/03/12 09:05:59;;;;;;;;;;;24.70;40.10;;;;;;5046704;28;19925;-59
2024/03/12 09:08:26;;;;;;;;;;;24.70;40.00;;;;;;5048896;28;19976;-60
2024/03/12 09:10:53;;;;;;;;;;;24.70;39.80;;;;;;5045445;28;20337;-62
2024/03/12 09:13:20;;;;;;;;;;;24.70;39.80;;;;;;5048684;28;19944;-62
2024/03/12 09:15:51;;;;;;;;;;;24.60;39.70;;;;;;5046643;28;19928;-61
2024/03/12 09:18:20;;;;;;;;;;;24.60;39.80;;;;;;5046782;28;19990;-61
2024/03/12 09:20:54;;;;;;;;;;;24.60;39.70;;;;;;5044292;28;20435;-61
2024/03/12 09:23:22;;;;;;;;;;;24.60;39.80;;;;;;5046086;28;19986;-60
2024/03/12 09:25:49;;;;;;;;;;;24.60;39.80;;;;;;5046926;28;19925;-61
2024/03/12 09:28:17;;;;;;;;;;;24.60;39.80;;;;;;5048585;28;19983;-61
2024/03/12 09:30:45;;;;;;;;;;;24.60;39.70;;;;;;5046395;28;19984;-63
2024/03/12 09:33:15;;;;;;;;;;;24.60;39.70;;;;;;5048235;28;20287;-65
2024/03/12 09:35:43;;;;;;;;;;;24.60;39.70;;;;;;5046121;28;19986;-64
2024/03/12 09:38:10;;;;;;;;;;;24.60;39.80;;;;;;5050800;28;19929;-63
2024/03/12 09:40:38;;;;;;;;;;;24.70;39.90;;;;;;5043333;28;19928;-63
2024/03/12 09:43:06;;;;;;;;;;;24.70;39.80;;;;;;5041738;28;20021;-62
2024/03/12 09:45:34;;;;;;;;;;;24.70;39.70;;;;;;5046562;28;19932;-62
2024/03/12 09:48:01;;;;;;;;;;;24.70;39.70;;;;;;5045146;28;20776;-65
2024/03/12 09:50:29;;;;;;;;;;;24.70;39.60;;;;;;5048305;28;19939;-65
2024/03/12 09:52:56;;;;;;;;;;;24.70;39.70;;;;;;5046246;28;19925;-64
2024/03/12 09:55:25;;;;;;;;;;;24.70;39.80;;;;;;5025343;28;19932;-63
2024/03/12 09:57:52;;;;;;;;;;;24.70;39.90;;;;;;5045155;28;20524;-64
2024/03/12 10:00:22;;;;;;;;;;;24.70;39.90;;;;;;5045255;28;19932;-63
2024/03/12 10:02:50;;;;;;;;;;;24.70;39.90;;;;;;5045816;28;19933;-69
2024/03/12 10:05:21;;;;;;;;;;;24.70;39.80;;;;;;5049797;28;19971;-63
2024/03/12 10:08:06;;;;;;;;;;;24.60;39.80;;;;;;5050896;28;19932;-66
2024/03/12 10:10:36;;;;;;;;;;;24.60;39.80;;;;;;5046861;28;19951;-62
2024/03/12 10:13:04;;;;;;;;;;;24.60;40.00;;;;;;5045270;28;19924;-67
2024/03/12 10:15:31;;;;;;;;;;;24.60;40.00;;;;;;5045517;28;19948;-64
2024/03/12 10:17:59;;;;;;;;;;;24.70;40.50;;;;;;5043634;28;19925;-73
2024/03/12 10:20:27;;;;;;;;;;;24.70;40.50;;;;;;5041914;28;19924;-68
2024/03/12 10:23:09;;;;;;;;;;;24.70;40.90;;;;;;5045729;28;19929;-68
2024/03/12 10:25:36;;;;;;;;;;;24.70;41.00;;;;;;5043379;28;20062;-67
2024/03/12 10:28:07;;;;;;;;;;;24.70;40.80;;;;;;5044459;28;20369;-64
2024/03/12 10:30:37;;;;;;;;;;;24.60;40.50;;;;;;5045782;28;19987;-63
2024/03/12 10:33:17;;;;;;;;;;;24.70;41.10;;;;;;5047405;28;19985;-64
2024/03/12 10:35:44;;;;;;;;;;;24.70;40.60;;;;;;5043580;28;20514;-66
2024/03/12 10:38:13;;;;;;;;;;;24.70;40.50;;;;;;5037413;28;19956;-66
2024/03/12 10:40:41;;;;;;;;;;;24.70;40.30;;;;;;5039529;28;19929;-65
2024/03/12 10:43:08;;;;;;;;;;;24.70;40.20;;;;;;5042203;28;19932;-65
2024/03/12 10:45:35;;;;;;;;;;;24.70;40.20;;;;;;5044311;28;19925;-65
2024/03/12 10:48:06;;;;;;;;;;;24.70;40.10;;;;;;5043248;28;19925;-64
2024/03/12 10:50:34;;;;;;;;;;;24.70;40.10;;;;;;5044666;28;19929;-65
2024/03/12 10:53:01;;;;;;;;;;;24.70;40.10;;;;;;5041179;28;20110;-66
2024/03/12 10:55:32;;;;;;;;;;;24.60;40.00;;;;;;5042983;28;19987;-70
2024/03/12 10:58:02;;;;;;;;;;;24.60;39.80;;;;;;5046479;28;19933;-65
2024/03/12 11:00:30;;;;;;;;;;;24.60;39.80;;;;;;5043581;28;20314;-64
2024/03/12 11:02:57;;;;;;;;;;;24.60;39.90;;;;;;5050476;28;19929;-63
2024/03/12 11:05:26;;;;;;;;;;;24.60;40.00;;;;;;5048000;28;20225;-65
2024/03/12 11:07:55;;;;;;;;;;;24.60;40.00;;;;;;5048305;28;19933;-67
2024/03/12 11:10:22;;;;;;;;;;;24.60;39.90;;;;;;5042574;28;20389;-67
2024/03/12 11:12:49;;;;;;;;;;;24.60;39.90;;;;;;5047209;28;19925;-65
2024/03/12 11:15:17;;;;;;;;;;;24.60;39.80;;;;;;5043595;28;20070;-65
2024/03/12 11:17:48;;;;;;;;;;;24.60;39.80;;;;;;5038048;28;19975;-65
2024/03/12 11:20:21;;;;;;;;;;;24.60;39.70;;;;;;5049100;28;19925;-64
2024/03/12 11:22:59;;;;;;;;;;;24.50;39.60;;;;;;5039316;28;19929;-63
2024/03/12 11:25:27;;;;;;;;;;;24.50;39.60;;;;;;5047288;28;20333;-67
2024/03/12 11:28:14;;;;;;;;;;;24.50;39.50;;;;;;5044883;28;19932;-64
2024/03/12 11:30:42;;;;;;;;;;;24.40;39.50;;;;;;5050728;28;19933;-64
2024/03/12 11:33:11;;;;;;;;;;;24.40;39.50;;;;;;5044864;28;19924;-65
2024/03/12 11:35:39;;;;;;;;;;;24.40;39.50;;;;;;5045440;28;19935;-65
2024/03/12 11:38:06;;;;;;;;;;;24.30;39.50;;;;;;5045161;28;19986;-65
2024/03/12 11:40:46;;;;;;;;;;;24.30;39.50;;;;;;5041706;28;19968;-64
2024/03/12 11:43:32;;;;;;;;;;;24.30;39.60;;;;;;5047157;28;19925;-65
2024/03/12 11:46:01;;;;;;;;;;;24.30;39.70;;;;;;5045102;28;19929;-65
2024/03/12 11:48:33;;;;;;;;;;;24.20;39.70;;;;;;5045175;28;19937;-68
2024/03/12 11:51:03;;;;;;;;;;;24.20;39.80;;;;;;5037090;28;19955;-65
2024/03/12 11:53:32;;;;;;;;;;;24.20;40.00;;;;;;5044610;28;19929;-68
2024/03/12 11:56:15;;;;;;;;;;;24.20;40.30;;;;;;5036661;28;19925;-64
2024/03/12 11:58:46;;;;;;;;;;;24.20;40.40;;;;;;5044565;28;19932;-64
2024/03/12 12:01:15;;;;;;;;;;;24.20;40.50;;;;;;5047105;28;19940;-66
2024/03/12 12:03:43;;;;;;;;;;;24.20;40.50;;;;;;5048018;28;19933;-64
2024/03/12 12:06:11;;;;;;;;;;;24.30;40.60;;;;;;5049534;28;19931;-64
2024/03/12 12:08:38;;;;;;;;;;;24.30;40.60;;;;;;5042046;28;19984;-63
2024/03/12 12:11:19;;;;;;;;;;;24.30;40.60;;;;;;5048638;28;19925;-66
2024/03/12 12:13:46;;;;;;;;;;;24.30;40.50;;;;;;5044972;28;19931;-64
2024/03/12 12:16:16;;;;;;;;;;;24.30;40.40;;;;;;5043784;28;19937;-65
2024/03/12 12:18:44;;;;;;;;;;;24.30;40.30;;;;;;5044396;28;20356;-63
2024/03/12 12:21:15;;;;;;;;;;;24.30;40.40;;;;;;5045321;28;20348;-64
2024/03/12 12:23:43;;;;;;;;;;;24.30;40.40;;;;;;5051179;28;20015;-64
2024/03/12 12:26:12;;;;;;;;;;;24.40;40.50;;;;;;5046304;28;19929;-62
2024/03/12 12:28:40;;;;;;;;;;;24.40;40.50;;;;;;5048873;28;19931;-64
2024/03/12 12:31:11;;;;;;;;;;;24.50;40.60;;;;;;5050324;28;19929;-65
2024/03/12 12:33:40;;;;;;;;;;;24.50;40.40;;;;;;5049929;28;19925;-65
2024/03/12 12:36:09;;;;;;;;;;;24.50;40.10;;;;;;5047712;28;19933;-63
2024/03/12 12:38:37;;;;;;;;;;;24.50;40.00;;;;;;5052237;28;19929;-63
2024/03/12 12:41:06;;;;;;;;;;;24.50;39.90;;;;;;5032740;28;19938;-68
2024/03/12 12:43:33;;;;;;;;;;;24.50;39.80;;;;;;5047736;28;19986;-68
2024/03/12 12:46:05;;;;;;;;;;;24.50;39.80;;;;;;5049343;28;19949;-68
2024/03/12 12:48:35;;;;;;;;;;;24.50;40.00;;;;;;5049205;28;19991;-62
2024/03/12 12:51:05;;;;;;;;;;;24.50;40.10;;;;;;5046927;28;19929;-63
2024/03/12 12:53:32;;;;;;;;;;;24.50;40.40;;;;;;5050674;28;19972;-63
2024/03/12 12:56:01;;;;;;;;;;;24.50;40.40;;;;;;5049984;28;20015;-66
2024/03/12 12:58:31;;;;;;;;;;;24.50;40.30;;;;;;5046752;28;20631;-66
2024/03/12 13:00:59;;;;;;;;;;;24.40;40.50;;;;;;5050602;28;20023;-70
2024/03/12 13:03:26;;;;;;;;;;;24.50;40.60;;;;;;5044067;28;19930;-63
2024/03/12 13:06:10;;;;;;;;;;;24.50;40.80;;;;;;5049547;28;19928;-63
2024/03/12 13:08:39;;;;;;;;;;;24.40;40.80;;;;;;5046399;28;19975;-67
2024/03/12 13:11:08;;;;;;;;;;;24.40;40.80;;;;;;5050367;28;19941;-64
2024/03/12 13:13:43;;;;;;;;;;;24.40;41.10;;;;;;5046911;28;19929;-63
2024/03/12 13:16:15;;;;;;;;;;;24.40;41.40;;;;;;5048317;28;20394;-63
2024/03/12 13:18:46;;;;;;;;;;;24.40;41.60;;;;;;5045264;28;20015;-63
2024/03/12 13:21:13;;;;;;;;;;;24.40;41.50;;;;;;5046155;28;19933;-63
2024/03/12 13:23:44;;;;;;;;;;;24.40;41.20;;;;;;5050583;28;19924;-63
2024/03/12 13:26:13;;;;;;;;;;;24.40;41.00;;;;;;5046932;28;20302;-63
2024/03/12 13:28:40;;;;;;;;;;;24.40;40.80;;;;;;5043883;28;20555;-63
2024/03/12 13:31:08;;;;;;;;;;;24.50;40.70;;;;;;5045712;28;19980;-64
2024/03/12 13:33:37;;;;;;;;;;;24.40;40.60;;;;;;5046140;28;19936;-64
2024/03/12 13:36:05;;;;;;;;;;;24.40;40.60;;;;;;5047138;28;19929;-64
2024/03/12 13:38:32;;;;;;;;;;;24.40;40.50;;;;;;5043545;28;19940;-64
2024/03/12 13:41:00;;;;;;;;;;;24.40;40.60;;;;;;5050359;28;19936;-65
2024/03/12 13:43:27;;;;;;;;;;;24.40;40.60;;;;;;5046824;28;19937;-65
2024/03/12 13:45:55;;;;;;;;;;;24.40;41.00;;;;;;5049718;28;19924;-65
2024/03/12 13:48:23;;;;;;;;;;;24.40;41.20;;;;;;5048539;28;19929;-64
2024/03/12 13:50:56;;;;;;;;;;;24.40;41.40;;;;;;5051275;28;19933;-66
2024/03/12 13:53:22;;;;;;;;;;;24.50;41.60;;;;;;5045932;28;19982;-69
2024/03/12 13:55:49;;;;;;;;;;;24.50;41.70;;;;;;5049593;28;19978;-68
2024/03/12 13:58:17;;;;;;;;;;;24.40;41.70;;;;;;5050289;28;19924;-70
2024/03/12 14:00:44;;;;;;;;;;;24.50;41.80;;;;;;5048003;28;20019;-68
2024/03/12 14:03:12;;;;;;;;;;;24.50;41.80;;;;;;5044792;28;19933;-70
2024/03/12 14:05:39;;;;;;;;;;;24.50;41.80;;;;;;5048248;28;19940;-70
2024/03/12 14:08:06;;;;;;;;;;;24.50;41.90;;;;;;5047709;28;19982;-70
2024/03/12 14:10:34;;;;;;;;;;;24.50;41.80;;;;;;5046955;28;20667;-70
2024/03/12 14:13:01;;;;;;;;;;;24.50;41.50;;;;;;5048138;28;19925;-85
2024/03/12 14:15:28;;;;;;;;;;;24.50;41.50;;;;;;5035738;28;19971;-69
2024/03/12 14:17:55;;;;;;;;;;;24.50;41.50;;;;;;5047950;28;19933;-69
2024/03/12 14:20:22;;;;;;;;;;;24.50;41.50;;;;;;5044523;28;19929;-71
2024/03/12 14:22:49;;;;;;;;;;;24.50;41.40;;;;;;5045114;28;19976;-65
2024/03/12 14:25:16;;;;;;;;;;;24.50;41.50;;;;;;5050332;28;19964;-65
2024/03/12 14:27:43;;;;;;;;;;;24.50;41.40;;;;;;5047754;28;19929;-65
2024/03/12 14:30:13;;;;;;;;;;;24.50;41.30;;;;;;5048771;28;20016;-66